createdAt,value
2017-12-30T00:00:10.781Z,8.13
2017-12-30T00:00:51.374Z,8.1
2017-12-30T00:01:32.059Z,8
2017-12-30T00:02:12.812Z,8.02
2017-12-30T00:02:53.894Z,8
2017-12-30T00:03:35.277Z,7.99
2017-12-30T00:04:15.690Z,8.04
2017-12-30T00:04:56.377Z,8.06
2017-12-30T00:05:36.898Z,8.06
2017-12-30T00:06:17.811Z,8.03
2017-12-30T00:06:58.222Z,8.06
2017-12-30T00:07:38.406Z,8.12
2017-12-30T00:08:19.969Z,8.17
2017-12-30T00:08:59.994Z,8.1
2017-12-30T00:09:40.697Z,8.06
2017-12-30T00:10:21.177Z,7.99
2017-12-30T00:11:01.911Z,8
2017-12-30T00:11:42.748Z,7.96
2017-12-30T00:12:23.920Z,7.94
2017-12-30T00:13:04.327Z,7.99
2017-12-30T00:13:44.689Z,7.81
2017-12-30T00:14:25.278Z,7.85
2017-12-30T00:15:06.093Z,7.92
2017-12-30T00:15:46.234Z,7.86
2017-12-30T00:16:26.618Z,7.99
2017-12-30T00:17:07.407Z,7.81
2017-12-30T00:17:48.011Z,7.79
2017-12-30T00:18:28.254Z,7.79
2017-12-30T00:19:09.081Z,7.88
2017-12-30T00:19:49.468Z,7.81
2017-12-30T00:20:29.945Z,7.82
2017-12-30T00:21:10.465Z,7.79
2017-12-30T00:21:51.047Z,7.84
2017-12-30T00:22:31.754Z,7.73
2017-12-30T00:23:12.328Z,7.79
2017-12-30T00:23:53.195Z,7.94
2017-12-30T00:24:33.694Z,7.96
2017-12-30T00:25:14.165Z,7.94
2017-12-30T00:25:55.053Z,7.96
2017-12-30T00:26:35.487Z,7.92
2017-12-30T00:27:16.218Z,7.95
2017-12-30T00:27:56.543Z,7.94
2017-12-30T00:28:37.158Z,8
2017-12-30T00:29:18.054Z,8.02
2017-12-30T00:29:58.882Z,7.91
2017-12-30T00:30:39.175Z,7.94
2017-12-30T00:31:20.019Z,7.96
2017-12-30T00:32:00.452Z,7.91
2017-12-30T00:32:41.474Z,7.94
2017-12-30T00:33:22.403Z,7.84
2017-12-30T00:34:04.070Z,7.81
2017-12-30T00:34:47.327Z,7.82
2017-12-30T00:35:27.826Z,7.85
2017-12-30T00:36:08.722Z,7.92
2017-12-30T00:36:49.283Z,7.84
2017-12-30T00:38:47.811Z,7.58
2017-12-30T00:39:30.352Z,7.55
2017-12-30T00:40:11.271Z,7.6
2017-12-30T00:40:52.164Z,7.6
2017-12-30T00:41:32.915Z,7.73
2017-12-30T00:42:13.456Z,7.67
2017-12-30T00:42:54.021Z,7.58
2017-12-30T00:43:35.565Z,7.55
2017-12-30T00:44:15.896Z,7.57
2017-12-30T00:44:56.816Z,7.51
2017-12-30T00:45:37.147Z,7.45
2017-12-30T00:46:18.491Z,7.36
2017-12-30T00:46:59.050Z,7.45
2017-12-30T00:47:39.858Z,7.57
2017-12-30T00:48:20.451Z,7.47
2017-12-30T00:49:01.355Z,7.48
2017-12-30T00:49:41.829Z,7.52
2017-12-30T00:50:23.234Z,7.52
2017-12-30T00:51:03.734Z,7.51
2017-12-30T00:51:44.556Z,7.58
2017-12-30T00:52:25.809Z,7.54
2017-12-30T00:53:06.106Z,7.54
2017-12-30T00:53:46.583Z,7.6
2017-12-30T00:54:27.233Z,7.57
2017-12-30T00:55:08.463Z,7.55
2017-12-30T00:55:48.806Z,7.57
2017-12-30T00:56:29.824Z,7.58
2017-12-30T00:57:10.284Z,7.57
2017-12-30T00:57:51.954Z,7.52
2017-12-30T00:58:32.389Z,7.6
2017-12-30T00:59:12.882Z,7.54
2017-12-30T00:59:54.786Z,7.47
2017-12-30T01:00:35.431Z,7.48
2017-12-30T01:01:16.957Z,7.51
2017-12-30T01:01:57.523Z,7.32
2017-12-30T01:02:38.133Z,7.41
2017-12-30T01:03:19.898Z,7.5
2017-12-30T01:04:03.086Z,7.5
2017-12-30T01:04:43.829Z,7.45
2017-12-30T01:05:24.918Z,7.48
2017-12-30T01:06:05.434Z,7.58
2017-12-30T01:06:48.534Z,7.62
2017-12-30T01:07:29.755Z,7.69
2017-12-30T01:08:10.987Z,7.74
2017-12-30T01:08:51.961Z,7.82
2017-12-30T01:09:32.821Z,7.82
2017-12-30T01:10:14.786Z,7.85
2017-12-30T01:10:56.830Z,7.82
2017-12-30T01:11:37.601Z,7.86
2017-12-30T01:12:18.470Z,7.79
2017-12-30T01:12:59.378Z,7.79
2017-12-30T01:13:40.360Z,7.85
2017-12-30T01:14:21.578Z,7.85
2017-12-30T01:15:02.537Z,7.82
2017-12-30T01:15:43.301Z,7.79
2017-12-30T01:16:25.188Z,7.82
2017-12-30T01:17:04.434Z,7.79
2017-12-30T01:17:44.798Z,7.85
2017-12-30T01:18:25.298Z,7.79
2017-12-30T01:19:06.179Z,7.82
2017-12-30T01:19:46.809Z,7.85
2017-12-30T01:20:27.243Z,7.84
2017-12-30T01:21:07.794Z,7.81
2017-12-30T01:21:48.469Z,7.95
2017-12-30T01:22:28.731Z,7.79
2017-12-30T01:23:09.381Z,7.88
2017-12-30T01:23:50.050Z,7.74
2017-12-30T01:24:30.678Z,7.66
2017-12-30T01:25:11.417Z,7.71
2017-12-30T01:25:52.228Z,7.74
2017-12-30T01:26:34.048Z,7.82
2017-12-30T01:27:14.742Z,7.74
2017-12-30T01:27:55.148Z,7.74
2017-12-30T01:28:35.538Z,7.73
2017-12-30T01:29:16.153Z,7.86
2017-12-30T01:29:56.564Z,7.84
2017-12-30T01:30:37.226Z,7.79
2017-12-30T01:31:18.717Z,7.82
2017-12-30T01:31:58.997Z,7.71
2017-12-30T01:32:40.345Z,7.85
2017-12-30T01:33:20.773Z,7.81
2017-12-30T01:34:01.800Z,7.73
2017-12-30T01:34:42.348Z,7.69
2017-12-30T01:35:23.140Z,7.62
2017-12-30T01:36:03.947Z,7.48
2017-12-30T01:36:44.967Z,7.41
2017-12-30T01:37:25.315Z,7.39
2017-12-30T01:38:05.699Z,7.41
2017-12-30T01:38:46.088Z,7.26
2017-12-30T01:39:26.558Z,7.19
2017-12-30T01:40:07.077Z,7.14
2017-12-30T01:40:47.623Z,7.19
2017-12-30T01:41:28.674Z,7.21
2017-12-30T01:42:08.809Z,7.09
2017-12-30T01:42:49.515Z,7.11
2017-12-30T01:43:30.142Z,7.14
2017-12-30T01:44:10.585Z,7.14
2017-12-30T01:44:51.389Z,7.24
2017-12-30T01:45:31.812Z,7.27
2017-12-30T01:46:12.359Z,7.26
2017-12-30T01:46:52.841Z,7.16
2017-12-30T01:47:33.188Z,7.26
2017-12-30T01:48:14.175Z,7.23
2017-12-30T01:48:54.551Z,7.26
2017-12-30T01:49:34.885Z,7.34
2017-12-30T01:50:15.266Z,7.37
2017-12-30T01:50:56.063Z,7.34
2017-12-30T01:51:37.160Z,7.33
2017-12-30T01:52:17.420Z,7.34
2017-12-30T01:52:57.956Z,7.3
2017-12-30T01:53:39.493Z,7.3
2017-12-30T01:54:20.814Z,7.27
2017-12-30T01:55:01.067Z,7.29
2017-12-30T01:55:41.852Z,7.32
2017-12-30T01:56:22.274Z,7.29
2017-12-30T01:57:02.714Z,7.36
2017-12-30T01:57:43.931Z,7.33
2017-12-30T01:58:25.804Z,7.36
2017-12-30T01:59:06.681Z,7.45
2017-12-30T01:59:47.040Z,7.47
2017-12-30T02:00:28.057Z,7.5
2017-12-30T02:01:11.760Z,7.45
2017-12-30T02:01:51.665Z,7.45
2017-12-30T02:02:31.866Z,7.45
2017-12-30T02:03:12.596Z,7.44
2017-12-30T02:03:53.150Z,7.52
2017-12-30T02:04:33.468Z,7.33
2017-12-30T02:05:14.176Z,7.39
2017-12-30T02:05:56.410Z,7.33
2017-12-30T02:06:36.799Z,7.36
2017-12-30T02:07:17.195Z,7.29
2017-12-30T02:07:57.653Z,7.36
2017-12-30T02:08:38.165Z,7.36
2017-12-30T02:09:18.643Z,7.36
2017-12-30T02:09:58.998Z,7.32
2017-12-30T02:10:41.213Z,7.27
2017-12-30T02:11:21.568Z,7.19
2017-12-30T02:14:15.653Z,7.14
2017-12-30T02:15:03.690Z,7.14
2017-12-30T02:15:43.471Z,7.07
2017-12-30T02:16:23.803Z,7.08
2017-12-30T02:17:09.231Z,6.94
2017-12-30T02:17:48.228Z,6.93
2017-12-30T02:18:28.617Z,6.86
2017-12-30T02:19:09.132Z,6.76
2017-12-30T02:19:49.878Z,6.63
2017-12-30T02:20:30.903Z,6.5
2017-12-30T02:21:12.208Z,6.43
2017-12-30T02:21:52.904Z,6.4
2017-12-30T02:22:33.240Z,6.25
2017-12-30T02:23:14.290Z,6.2
2017-12-30T02:23:54.252Z,6.06
2017-12-30T02:24:34.608Z,6.1
2017-12-30T02:25:15.374Z,6.08
2017-12-30T02:25:55.554Z,6.02
2017-12-30T02:26:35.966Z,6.01
2017-12-30T02:27:16.390Z,5.98
2017-12-30T02:27:57.218Z,5.88
2017-12-30T02:28:38.558Z,5.92
2017-12-30T02:29:19.858Z,5.84
2017-12-30T02:30:00.316Z,5.87
2017-12-30T02:30:40.649Z,5.83
2017-12-30T02:31:21.362Z,5.78
2017-12-30T02:32:01.776Z,5.78
2017-12-30T02:32:42.777Z,5.78
2017-12-30T02:33:23.062Z,5.67
2017-12-30T02:34:03.452Z,5.7
2017-12-30T02:34:43.800Z,5.69
2017-12-30T02:35:24.235Z,5.66
2017-12-30T02:36:04.762Z,5.7
2017-12-30T02:36:45.200Z,5.7
2017-12-30T02:37:25.653Z,5.67
2017-12-30T02:38:06.151Z,5.58
2017-12-30T02:38:46.576Z,5.52
2017-12-30T02:39:26.852Z,5.56
2017-12-30T02:40:07.263Z,5.6
2017-12-30T02:40:48.366Z,5.56
2017-12-30T02:41:28.752Z,5.55
2017-12-30T02:42:09.195Z,5.49
2017-12-30T02:42:49.575Z,5.41
2017-12-30T02:43:30.133Z,5.49
2017-12-30T02:44:10.605Z,5.4
2017-12-30T02:44:53.530Z,5.4
2017-12-30T02:45:34.278Z,5.38
2017-12-30T02:46:17.171Z,5.41
2017-12-30T02:46:56.258Z,5.33
2017-12-30T02:47:36.744Z,5.26
2017-12-30T02:48:17.139Z,5.26
2017-12-30T02:48:57.792Z,5.15
2017-12-30T02:49:38.321Z,5.09
2017-12-30T02:50:19.103Z,5.02
2017-12-30T02:50:59.343Z,4.9
2017-12-30T02:51:39.838Z,4.87
2017-12-30T02:52:20.975Z,4.93
2017-12-30T02:53:01.351Z,4.83
2017-12-30T02:53:41.690Z,4.8
2017-12-30T02:54:23.723Z,4.83
2017-12-30T02:55:04.390Z,4.79
2017-12-30T02:55:44.973Z,4.71
2017-12-30T02:56:25.420Z,4.79
2017-12-30T02:57:07.856Z,4.68
2017-12-30T02:57:48.652Z,4.71
2017-12-30T02:58:29.888Z,4.75
2017-12-30T02:59:10.685Z,4.77
2017-12-30T02:59:51.275Z,4.74
2017-12-30T03:00:31.600Z,4.79
2017-12-30T03:01:12.001Z,4.71
2017-12-30T03:01:52.421Z,4.75
2017-12-30T03:02:32.860Z,4.77
2017-12-30T03:03:13.262Z,4.72
2017-12-30T03:03:55.150Z,4.72
2017-12-30T03:04:36.121Z,4.72
2017-12-30T03:05:16.617Z,4.71
2017-12-30T03:05:56.924Z,4.71
2017-12-30T03:06:37.434Z,4.79
2017-12-30T03:07:18.586Z,4.79
2017-12-30T03:07:58.904Z,4.68
2017-12-30T03:08:39.286Z,4.74
2017-12-30T03:09:19.671Z,4.68
2017-12-30T03:10:00.112Z,4.62
2017-12-30T03:10:40.710Z,4.62
2017-12-30T03:11:21.256Z,4.61
2017-12-30T03:12:01.892Z,4.64
2017-12-30T03:12:42.306Z,4.59
2017-12-30T03:13:23.201Z,4.51
2017-12-30T03:14:03.571Z,4.51
2017-12-30T03:14:46.346Z,4.59
2017-12-30T03:15:27.880Z,4.62
2017-12-30T03:16:08.151Z,4.62
2017-12-30T03:16:48.967Z,4.59
2017-12-30T03:17:29.696Z,4.61
2017-12-30T03:18:10.170Z,4.53
2017-12-30T03:18:50.926Z,4.65
2017-12-30T03:19:31.311Z,4.54
2017-12-30T03:20:12.109Z,4.5
2017-12-30T03:20:52.652Z,4.49
2017-12-30T03:21:33.589Z,4.54
2017-12-30T03:22:14.259Z,4.53
2017-12-30T03:22:54.608Z,4.59
2017-12-30T03:23:34.975Z,4.68
2017-12-30T03:24:18.676Z,4.62
2017-12-30T03:26:18.701Z,4.61
2017-12-30T03:27:07.580Z,4.62
2017-12-30T03:27:48.895Z,4.64
2017-12-30T03:28:28.697Z,4.64
2017-12-30T03:29:10.961Z,4.65
2017-12-30T03:29:52.599Z,4.61
2017-12-30T03:30:33.098Z,4.71
2017-12-30T03:36:25.863Z,4.59
2017-12-30T03:37:14.553Z,4.64
2017-12-30T03:38:03.404Z,4.68
2017-12-30T03:38:52.235Z,4.59
2017-12-30T03:39:40.797Z,4.67
2017-12-30T03:40:29.671Z,4.59
2017-12-30T03:42:59.181Z,4.64
2017-12-30T03:45:40.857Z,4.67
2017-12-30T03:48:14.964Z,4.53
2017-12-30T03:49:00.010Z,4.59
2017-12-30T03:49:40.357Z,4.47
2017-12-30T03:50:20.881Z,4.49
2017-12-30T03:51:01.270Z,4.49
2017-12-30T03:51:41.781Z,4.36
2017-12-30T03:52:22.122Z,4.47
2017-12-30T03:53:03.192Z,4.36
2017-12-30T03:53:43.202Z,4.36
2017-12-30T03:54:23.808Z,4.38
2017-12-30T03:55:04.062Z,4.38
2017-12-30T03:55:45.056Z,4.5
2017-12-30T03:56:26.028Z,4.43
2017-12-30T03:57:06.540Z,4.54
2017-12-30T03:57:47.006Z,4.51
2017-12-30T03:58:27.269Z,4.5
2017-12-30T03:59:08.197Z,4.54
2017-12-30T03:59:48.593Z,4.57
2017-12-30T04:00:29.078Z,4.56
2017-12-30T04:01:10.597Z,4.51
2017-12-30T04:42:55.695Z,4.83
2017-12-30T04:43:37.364Z,4.74
2017-12-30T04:44:17.778Z,4.8
2017-12-30T04:44:58.733Z,4.83
2017-12-30T04:45:39.125Z,4.75
2017-12-30T04:46:19.518Z,4.84
2017-12-30T04:47:00.622Z,4.86
2017-12-30T04:47:41.657Z,4.9
2017-12-30T04:48:21.846Z,4.88
2017-12-30T04:49:02.251Z,4.93
2017-12-30T04:49:42.886Z,4.93
2017-12-30T04:50:23.556Z,4.96
2017-12-30T04:51:03.980Z,5.05
2017-12-30T04:51:45.378Z,5.09
2017-12-30T04:52:25.872Z,5.06
2017-12-30T04:53:06.680Z,5.12
2017-12-30T04:53:47.269Z,5.17
2017-12-30T04:54:27.931Z,5.23
2017-12-30T04:55:08.644Z,5.17
2017-12-30T04:55:49.107Z,5.14
2017-12-30T04:57:52.586Z,5.29
2017-12-30T04:58:36.552Z,5.33
2017-12-30T04:59:17.033Z,5.27
2017-12-30T04:59:57.442Z,5.4
2017-12-30T05:00:37.866Z,5.33
2017-12-30T05:01:18.368Z,5.33
2017-12-30T05:01:58.807Z,5.35
2017-12-30T05:02:39.816Z,5.33
2017-12-30T05:03:21.030Z,5.37
2017-12-30T05:04:02.165Z,5.42
2017-12-30T05:04:42.998Z,5.42
2017-12-30T05:05:24.070Z,5.42
2017-12-30T05:06:04.842Z,5.38
2017-12-30T05:06:45.280Z,5.4
2017-12-30T05:07:26.006Z,5.45
2017-12-30T05:08:07.026Z,5.47
2017-12-30T05:08:47.487Z,5.51
2017-12-30T05:09:28.993Z,5.41
2017-12-30T05:10:10.215Z,5.47
2017-12-30T05:10:52.385Z,5.41
2017-12-30T05:11:33.802Z,5.56
2017-12-30T05:12:16.594Z,5.55
2017-12-30T05:12:56.988Z,5.55
2017-12-30T05:13:37.410Z,5.49
2017-12-30T05:14:18.925Z,5.4
2017-12-30T05:14:59.431Z,5.45
2017-12-30T05:15:40.037Z,5.42
2017-12-30T05:16:20.948Z,5.58
2017-12-30T05:17:02.324Z,5.55
2017-12-30T05:17:42.706Z,5.48
2017-12-30T05:18:23.119Z,5.49
2017-12-30T05:19:03.795Z,5.6
2017-12-30T05:19:44.453Z,5.55
2017-12-30T05:20:24.806Z,5.48
2017-12-30T05:21:05.879Z,5.49
2017-12-30T05:21:47.315Z,5.51
2017-12-30T05:22:27.695Z,5.56
2017-12-30T05:23:11.386Z,5.49
2017-12-30T05:23:52.559Z,5.55
2017-12-30T05:24:33.052Z,5.62
2017-12-30T05:25:13.636Z,5.52
2017-12-30T05:25:53.969Z,5.62
2017-12-30T05:26:34.403Z,5.6
2017-12-30T05:27:14.761Z,5.69
2017-12-30T05:27:55.218Z,5.67
2017-12-30T05:28:35.843Z,5.67
2017-12-30T05:29:16.282Z,5.66
2017-12-30T05:29:56.642Z,5.73
2017-12-30T05:30:37.009Z,5.77
2017-12-30T05:31:18.504Z,5.67
2017-12-30T05:38:21.732Z,5.92
2017-12-30T05:39:08.848Z,5.9
2017-12-30T05:41:08.902Z,5.9
2017-12-30T05:41:52.948Z,5.87
2017-12-30T05:42:33.543Z,5.88
2017-12-30T05:43:15.154Z,5.87
2017-12-30T05:43:55.938Z,5.87
2017-12-30T05:44:36.254Z,5.84
2017-12-30T05:45:19.034Z,5.87
2017-12-30T05:45:59.482Z,5.84
2017-12-30T05:46:40.271Z,5.84
2017-12-30T05:47:20.578Z,5.83
2017-12-30T05:48:00.896Z,5.75
2017-12-30T05:48:41.505Z,5.7
2017-12-30T05:49:21.990Z,5.77
2017-12-30T05:50:04.619Z,5.65
2017-12-30T05:50:45.018Z,5.7
2017-12-30T05:51:25.522Z,5.73
2017-12-30T05:52:06.146Z,5.63
2017-12-30T05:52:47.079Z,5.6
2017-12-30T05:53:28.265Z,5.51
2017-12-30T05:54:08.821Z,5.56
2017-12-30T05:54:49.198Z,5.56
2017-12-30T05:55:29.945Z,5.52
2017-12-30T05:56:10.703Z,5.48
2017-12-30T05:56:52.276Z,5.52
2017-12-30T05:57:32.470Z,5.58
2017-12-30T05:58:12.882Z,5.51
2017-12-30T05:58:53.458Z,5.48
2017-12-30T05:59:34.138Z,5.59
2017-12-30T06:00:14.711Z,5.59
2017-12-30T06:00:57.593Z,5.52
2017-12-30T06:01:37.590Z,5.52
2017-12-30T06:02:19.665Z,5.55
2017-12-30T06:03:00.281Z,5.55
2017-12-30T06:03:43.190Z,5.51
2017-12-30T06:04:22.296Z,5.56
2017-12-30T06:05:02.833Z,5.49
2017-12-30T06:05:43.453Z,5.45
2017-12-30T06:06:24.161Z,5.42
2017-12-30T06:07:04.820Z,5.44
2017-12-30T06:07:45.812Z,5.47
2017-12-30T06:08:26.064Z,5.45
2017-12-30T06:09:06.800Z,5.47
2017-12-30T06:09:47.572Z,5.37
2017-12-30T06:10:27.882Z,5.45
2017-12-30T06:11:08.924Z,5.33
2017-12-30T06:11:49.424Z,5.42
2017-12-30T06:12:30.092Z,5.38
2017-12-30T06:13:10.625Z,5.44
2017-12-30T06:13:51.262Z,5.41
2017-12-30T06:14:31.706Z,5.35
2017-12-30T06:15:12.198Z,5.4
2017-12-30T06:15:53.732Z,5.38
2017-12-30T06:16:34.097Z,5.33
2017-12-30T06:17:16.118Z,5.4
2017-12-30T06:17:56.783Z,5.35
2017-12-30T06:18:37.821Z,5.38
2017-12-30T06:19:20.036Z,5.42
2017-12-30T06:20:00.564Z,5.38
2017-12-30T06:20:41.866Z,5.37
2017-12-30T06:21:22.837Z,5.33
2017-12-30T06:22:03.270Z,5.32
2017-12-30T06:22:43.998Z,5.33
2017-12-30T06:23:24.373Z,5.4
2017-12-30T06:24:04.848Z,5.42
2017-12-30T06:24:46.268Z,5.38
2017-12-30T06:25:26.655Z,5.4
2017-12-30T06:26:08.453Z,5.41
2017-12-30T06:26:48.778Z,5.47
2017-12-30T06:27:30.119Z,5.45
2017-12-30T06:28:10.560Z,5.4
2017-12-30T06:28:51.047Z,5.45
2017-12-30T06:29:31.745Z,5.38
2017-12-30T06:30:11.976Z,5.45
2017-12-30T06:30:52.401Z,5.45
2017-12-30T06:31:33.545Z,5.42
2017-12-30T06:32:13.923Z,5.44
2017-12-30T06:32:54.722Z,5.42
2017-12-30T06:33:36.332Z,5.44
2017-12-30T06:34:17.628Z,5.48
2017-12-30T06:34:59.580Z,5.44
2017-12-30T06:35:40.148Z,5.42
2017-12-30T06:36:21.735Z,5.41
2017-12-30T06:37:01.977Z,5.4
2017-12-30T06:37:42.477Z,5.44
2017-12-30T06:38:23.080Z,5.42
2017-12-30T06:39:03.640Z,5.45
2017-12-30T06:39:46.547Z,5.41
2017-12-30T06:40:27.259Z,5.41
2017-12-30T06:41:07.703Z,5.47
2017-12-30T06:41:49.205Z,5.45
2017-12-30T06:42:29.515Z,5.47
2017-12-30T06:43:09.953Z,5.38
2017-12-30T06:43:50.403Z,5.44
2017-12-30T06:44:30.854Z,5.44
2017-12-30T06:45:11.716Z,5.59
2017-12-30T06:45:52.506Z,5.49
2017-12-30T06:46:33.717Z,5.52
2017-12-30T06:47:17.088Z,5.44
2017-12-30T06:48:01.352Z,5.47
2017-12-30T06:48:41.721Z,5.45
2017-12-30T06:49:22.005Z,5.47
2017-12-30T06:50:06.293Z,5.38
2017-12-30T06:50:49.605Z,5.49
2017-12-30T06:51:31.106Z,5.42
2017-12-30T06:52:11.434Z,5.44
2017-12-30T06:52:52.142Z,5.45
2017-12-30T06:53:33.293Z,5.37
2017-12-30T06:54:13.927Z,5.44
2017-12-30T06:54:54.779Z,5.47
2017-12-30T06:55:35.811Z,5.44
2017-12-30T06:56:16.380Z,5.42
2017-12-30T06:56:57.349Z,5.44
2017-12-30T06:57:37.708Z,5.48
2017-12-30T06:58:18.681Z,5.47
2017-12-30T06:58:59.211Z,5.41
2017-12-30T06:59:40.082Z,5.45
2017-12-30T07:00:22.084Z,5.4
2017-12-30T07:01:02.005Z,5.44
2017-12-30T07:01:42.702Z,5.48
2017-12-30T07:02:23.610Z,5.49
2017-12-30T07:03:04.095Z,5.48
2017-12-30T07:03:44.657Z,5.4
2017-12-30T07:04:25.259Z,5.49
2017-12-30T07:05:06.467Z,5.55
2017-12-30T07:05:47.126Z,5.47
2017-12-30T07:06:28.222Z,5.52
2017-12-30T07:07:10.134Z,5.49
2017-12-30T07:07:50.610Z,5.49
2017-12-30T07:08:31.920Z,5.51
2017-12-30T07:09:12.867Z,5.55
2017-12-30T07:09:53.687Z,5.48
2017-12-30T07:10:33.943Z,5.47
2017-12-30T07:11:14.371Z,5.45
2017-12-30T07:11:54.738Z,5.49
2017-12-30T07:12:35.515Z,5.42
2017-12-30T07:13:16.226Z,5.45
2017-12-30T07:13:57.686Z,5.47
2017-12-30T07:16:28.255Z,5.44
2017-12-30T07:17:14.521Z,5.45
2017-12-30T07:17:56.719Z,5.49
2017-12-30T07:18:37.236Z,5.47
2017-12-30T07:19:17.772Z,5.42
2017-12-30T07:19:58.278Z,5.47
2017-12-30T07:20:38.856Z,5.52
2017-12-30T07:23:33.844Z,5.58
2017-12-30T07:24:15.836Z,5.56
2017-12-30T07:24:56.204Z,5.65
2017-12-30T07:25:36.776Z,5.58
2017-12-30T07:26:17.157Z,5.62
2017-12-30T07:26:57.526Z,5.59
2017-12-30T07:27:37.951Z,5.6
2017-12-30T07:28:18.473Z,5.55
2017-12-30T07:28:59.079Z,5.58
2017-12-30T07:32:04.036Z,5.56
2017-12-30T07:32:45.274Z,5.55
2017-12-30T07:33:25.667Z,5.59
2017-12-30T07:34:06.532Z,5.62
2017-12-30T07:34:46.978Z,5.65
2017-12-30T07:35:27.277Z,5.65
2017-12-30T07:36:07.735Z,5.58
2017-12-30T07:36:48.352Z,5.63
2017-12-30T07:37:28.861Z,5.62
2017-12-30T07:38:09.893Z,5.65
2017-12-30T07:38:50.404Z,5.62
2017-12-30T07:39:30.629Z,5.65
2017-12-30T07:41:21.771Z,5.66
2017-12-30T07:42:07.839Z,5.6
2017-12-30T07:42:48.343Z,5.63
2017-12-30T07:43:28.866Z,5.62
2017-12-30T07:44:12.756Z,5.6
2017-12-30T07:44:53.293Z,5.65
2017-12-30T07:47:08.446Z,5.67
2017-12-30T07:47:51.467Z,5.73
2017-12-30T07:48:32.135Z,5.63
2017-12-30T07:49:12.484Z,5.7
2017-12-30T07:49:52.930Z,5.73
2017-12-30T07:50:33.373Z,5.77
2017-12-30T07:51:13.776Z,5.75
2017-12-30T07:51:54.346Z,5.74
2017-12-30T07:52:34.911Z,5.75
2017-12-30T07:53:15.383Z,5.77
2017-12-30T07:53:55.882Z,5.81
2017-12-30T07:54:36.622Z,5.87
2017-12-30T07:55:17.532Z,5.85
2017-12-30T07:55:57.995Z,5.87
2017-12-30T07:56:38.404Z,5.88
2017-12-30T07:57:18.739Z,5.88
2017-12-30T07:57:59.274Z,5.99
2017-12-30T07:58:41.442Z,5.9
2017-12-30T07:59:21.867Z,5.93
2017-12-30T08:00:02.638Z,6.01
2017-12-30T08:00:43.013Z,6.02
2017-12-30T08:01:23.423Z,6.01
2017-12-30T08:02:03.981Z,6.1
2017-12-30T08:02:44.376Z,6.02
2017-12-30T08:03:25.000Z,6.06
2017-12-30T08:04:05.518Z,6.08
2017-12-30T08:04:45.860Z,6.08
2017-12-30T08:05:26.250Z,6.16
2017-12-30T08:06:07.135Z,6.19
2017-12-30T08:06:47.833Z,6.21
2017-12-30T08:07:28.264Z,6.11
2017-12-30T08:08:09.094Z,6.21
2017-12-30T08:08:49.607Z,6.32
2017-12-30T08:09:29.972Z,6.2
2017-12-30T08:10:10.738Z,6.13
2017-12-30T08:10:50.914Z,6.17
2017-12-30T08:11:31.610Z,6.16
2017-12-30T08:12:12.326Z,6.11
2017-12-30T08:12:53.193Z,6.06
2017-12-30T08:13:34.108Z,6.1
2017-12-30T08:14:14.915Z,6.08
2017-12-30T08:14:55.113Z,6.11
2017-12-30T08:15:35.753Z,6.24
2017-12-30T08:16:16.377Z,6.17
2017-12-30T08:16:59.938Z,6.14
2017-12-30T08:17:40.425Z,6.27
2017-12-30T08:18:21.053Z,6.2
2017-12-30T08:19:01.534Z,6.13
2017-12-30T08:19:41.878Z,6.11
2017-12-30T08:20:22.684Z,6.2
2017-12-30T08:21:02.738Z,6.11
2017-12-30T08:21:43.271Z,6.27
2017-12-30T08:22:23.915Z,6.13
2017-12-30T08:23:04.407Z,6.08
2017-12-30T08:23:48.769Z,6.17
2017-12-30T08:24:30.594Z,6.16
2017-12-30T08:25:11.185Z,6.21
2017-12-30T08:25:52.258Z,6.1
2017-12-30T08:26:32.432Z,6.19
2017-12-30T08:27:12.847Z,6.14
2017-12-30T08:27:53.701Z,6.1
2017-12-30T08:28:34.468Z,6.14
2017-12-30T08:29:14.700Z,6.14
2017-12-30T08:29:55.277Z,6.13
2017-12-30T08:30:36.326Z,6.13
2017-12-30T08:31:16.831Z,6.11
2017-12-30T08:31:57.402Z,6.11
2017-12-30T08:32:38.561Z,6.19
2017-12-30T08:33:18.705Z,6.14
2017-12-30T08:33:59.152Z,6.11
2017-12-30T08:34:39.676Z,6.13
2017-12-30T08:35:20.495Z,6.16
2017-12-30T08:36:02.323Z,6.14
2017-12-30T08:36:43.122Z,6.17
2017-12-30T08:37:23.253Z,6.2
2017-12-30T08:38:04.083Z,6.25
2017-12-30T08:38:44.883Z,6.25
2017-12-30T08:39:25.637Z,6.17
2017-12-30T08:40:06.560Z,6.14
2017-12-30T08:40:46.965Z,6.17
2017-12-30T08:41:27.819Z,6.19
2017-12-30T08:42:07.955Z,6.25
2017-12-30T08:42:48.448Z,6.21
2017-12-30T08:43:29.176Z,6.21
2017-12-30T08:44:09.391Z,6.32
2017-12-30T08:44:49.959Z,6.28
2017-12-30T08:45:30.806Z,6.3
2017-12-30T08:46:13.608Z,6.35
2017-12-30T08:46:53.976Z,6.35
2017-12-30T08:47:34.457Z,6.36
2017-12-30T08:48:15.073Z,6.35
2017-12-30T08:48:56.015Z,6.36
2017-12-30T08:49:36.773Z,6.42
2017-12-30T08:50:17.317Z,6.45
2017-12-30T08:50:58.958Z,6.45
2017-12-30T08:51:39.397Z,6.46
2017-12-30T08:52:20.616Z,6.5
2017-12-30T08:53:01.914Z,6.46
2017-12-30T08:53:42.702Z,6.5
2017-12-30T08:54:23.386Z,6.53
2017-12-30T08:55:03.847Z,6.48
2017-12-30T08:55:44.834Z,6.48
2017-12-30T08:56:26.212Z,6.6
2017-12-30T08:57:07.026Z,6.54
2017-12-30T08:57:47.562Z,6.51
2017-12-30T08:58:28.498Z,6.63
2017-12-30T08:59:08.660Z,6.63
2017-12-30T08:59:49.100Z,6.64
2017-12-30T09:00:29.809Z,6.72
2017-12-30T09:01:10.458Z,6.65
2017-12-30T09:01:50.869Z,6.78
2017-12-30T09:02:31.711Z,6.78
2017-12-30T09:03:12.425Z,6.82
2017-12-30T09:03:52.822Z,6.83
2017-12-30T09:04:33.592Z,6.87
2017-12-30T09:05:14.820Z,6.91
2017-12-30T09:05:55.574Z,6.96
2017-12-30T09:06:36.209Z,6.93
2017-12-30T09:07:17.171Z,7.01
2017-12-30T09:07:58.175Z,7.08
2017-12-30T09:08:39.309Z,7.08
2017-12-30T09:09:19.499Z,7.08
2017-12-30T09:10:00.696Z,7.11
2017-12-30T09:10:41.357Z,7.15
2017-12-30T09:11:21.804Z,7.12
2017-12-30T09:12:02.384Z,7.18
2017-12-30T09:12:42.879Z,7.26
2017-12-30T09:13:24.137Z,7.24
2017-12-30T09:14:05.144Z,7.21
2017-12-30T09:14:45.482Z,7.3
2017-12-30T09:15:26.687Z,7.39
2017-12-30T09:16:07.606Z,7.37
2017-12-30T09:16:50.443Z,7.5
2017-12-30T09:17:31.834Z,7.48
2017-12-30T09:18:11.860Z,7.57
2017-12-30T09:18:53.565Z,7.6
2017-12-30T09:19:34.357Z,7.51
2017-12-30T09:20:16.290Z,7.57
2017-12-30T09:20:56.227Z,7.55
2017-12-30T09:21:37.202Z,7.62
2017-12-30T09:22:18.773Z,7.69
2017-12-30T09:22:59.056Z,7.7
2017-12-30T09:23:40.348Z,7.71
2017-12-30T09:24:20.904Z,7.73
2017-12-30T09:25:02.604Z,7.74
2017-12-30T09:25:45.225Z,7.81
2017-12-30T09:26:27.151Z,7.74
2017-12-30T09:27:08.101Z,7.84
2017-12-30T09:27:48.424Z,7.82
2017-12-30T09:28:30.767Z,7.81
2017-12-30T09:29:11.844Z,7.92
2017-12-30T09:29:53.196Z,7.92
2017-12-30T09:30:33.101Z,7.96
2017-12-30T09:31:13.929Z,7.94
2017-12-30T09:31:56.544Z,8.02
2017-12-30T09:32:38.641Z,8.14
2017-12-30T09:33:19.352Z,8.14
2017-12-30T09:33:59.760Z,8.31
2017-12-30T09:34:40.224Z,8.47
2017-12-30T09:35:20.623Z,8.52
2017-12-30T09:36:01.080Z,8.68
2017-12-30T09:36:41.560Z,8.73
2017-12-30T09:37:22.260Z,8.88
2017-12-30T09:38:03.120Z,9
2017-12-30T09:38:43.631Z,8.94
2017-12-30T09:39:24.122Z,9.12
2017-12-30T09:40:04.511Z,9.04
2017-12-30T09:40:44.956Z,9.08
2017-12-30T09:41:25.768Z,9.19
2017-12-30T09:42:06.087Z,9.27
2017-12-30T09:42:46.603Z,9.31
2017-12-30T09:43:27.100Z,9.38
2017-12-30T09:44:07.612Z,9.44
2017-12-30T09:44:48.178Z,9.55
2017-12-30T09:45:28.646Z,9.58
2017-12-30T09:46:09.132Z,9.67
2017-12-30T09:46:49.486Z,9.7
2017-12-30T09:47:30.419Z,9.75
2017-12-30T09:48:10.404Z,9.8
2017-12-30T09:48:50.793Z,9.89
2017-12-30T09:49:31.245Z,9.83
2017-12-30T09:50:11.682Z,9.86
2017-12-30T09:50:52.410Z,9.91
2017-12-30T09:51:32.877Z,9.91
2017-12-30T09:52:13.824Z,9.96
2017-12-30T09:52:54.335Z,9.99
2017-12-30T09:53:34.843Z,9.96
2017-12-30T09:54:15.443Z,9.89
2017-12-30T09:54:56.183Z,9.91
2017-12-30T09:55:36.613Z,10.02
2017-12-30T09:56:17.220Z,9.99
2017-12-30T09:56:57.670Z,9.98
2017-12-30T09:57:38.143Z,10.06
2017-12-30T09:58:18.564Z,10.13
2017-12-30T09:58:59.002Z,10.02
2017-12-30T09:59:39.365Z,10.04
2017-12-30T10:00:19.745Z,10.11
2017-12-30T10:01:00.868Z,10.16
2017-12-30T10:01:41.321Z,10.24
2017-12-30T10:02:21.733Z,10.18
2017-12-30T10:03:05.101Z,10.29
2017-12-30T10:45:43.531Z,12.16
2017-12-30T10:46:24.835Z,12.26
2017-12-30T10:47:05.378Z,12.22
2017-12-30T10:47:45.970Z,12.23
2017-12-30T10:48:26.323Z,12.25
2017-12-30T10:49:06.747Z,12.33
2017-12-30T10:49:47.268Z,12.29
2017-12-30T10:50:27.789Z,12.34
2017-12-30T10:51:08.126Z,12.4
2017-12-30T10:51:48.777Z,12.44
2017-12-30T10:52:29.278Z,12.46
2017-12-30T10:53:09.869Z,12.52
2017-12-30T10:53:50.335Z,12.49
2017-12-30T10:54:31.013Z,12.55
2017-12-30T10:55:11.520Z,12.59
2017-12-30T10:55:51.906Z,12.62
2017-12-30T10:56:32.352Z,12.61
2017-12-30T10:57:12.679Z,12.56
2017-12-30T10:57:53.167Z,12.56
2017-12-30T10:58:33.640Z,12.74
2017-12-30T10:59:14.071Z,12.76
2017-12-30T10:59:54.548Z,12.84
2017-12-30T11:00:35.052Z,12.8
2017-12-30T11:01:15.458Z,12.8
2017-12-30T11:01:55.943Z,12.87
2017-12-30T11:02:36.367Z,12.87